Time;durP1;ratioP1;P1;durP2;ratioP2;P2;SDS_P1;SDS_P2;PMS_P1;PMS_P2;Temp;Humidity;BMP_temperature;BMP_pressure;BME280_temperature;BME280_humidity;BME280_pressure;Samples;Min_cycle;Max_cycle;Signal;HPM_P1;HPM_P2
2023/04/01 00:01:40;;;;;;;2.20;0.87;;;11.30;99.90;;;;;;5073191;28;20445;-55
2023/04/01 00:04:07;;;;;;;1.40;0.63;;;11.20;99.90;;;;;;5072970;28;20471;-55
2023/04/01 00:06:33;;;;;;;2.00;0.97;;;11.20;99.90;;;;;;5072947;28;20459;-55
2023/04/01 00:09:00;;;;;;;1.50;0.73;;;11.30;99.90;;;;;;5072989;28;20449;-55
2023/04/01 00:11:27;;;;;;;1.20;0.57;;;11.30;99.90;;;;;;5072544;28;20864;-55
2023/04/01 00:13:54;;;;;;;1.00;0.50;;;11.30;99.90;;;;;;5072854;28;20508;-55
2023/04/01 00:16:22;;;;;;;1.80;0.63;;;11.20;99.90;;;;;;5072901;28;20441;-55
2023/04/01 00:18:50;;;;;;;3.60;0.77;;;11.20;99.90;;;;;;5072622;28;20942;-55
2023/04/01 00:21:17;;;;;;;2.80;0.67;;;11.20;99.90;;;;;;5072512;28;20935;-55
2023/04/01 00:23:44;;;;;;;5.40;0.80;;;11.20;99.90;;;;;;5072643;28;20468;-55
2023/04/01 00:26:11;;;;;;;2.97;1.00;;;11.20;99.90;;;;;;5072776;28;20480;-55
2023/04/01 00:28:38;;;;;;;1.27;0.80;;;11.20;99.90;;;;;;5072811;28;20452;-55
2023/04/01 00:31:06;;;;;;;1.80;0.80;;;11.20;99.90;;;;;;5072672;28;20488;-55
2023/04/01 00:33:34;;;;;;;3.57;0.67;;;11.20;99.90;;;;;;5075239;28;20838;-55
2023/04/01 00:36:08;;;;;;;2.40;0.70;;;11.10;99.90;;;;;;5076414;28;20460;-55
2023/04/01 00:38:35;;;;;;;2.63;0.87;;;11.10;99.90;;;;;;5076217;28;20456;-55
2023/04/01 00:41:01;;;;;;;3.83;0.73;;;11.10;99.90;;;;;;5076251;28;20429;-55
2023/04/01 00:43:28;;;;;;;1.80;0.83;;;11.10;99.90;;;;;;5076155;28;20472;-55
2023/04/01 00:45:55;;;;;;;3.63;1.00;;;11.10;99.90;;;;;;5076212;28;20456;-55
2023/04/01 00:48:26;;;;;;;4.00;0.70;;;11.10;99.90;;;;;;5076131;28;20472;-55
2023/04/01 00:50:57;;;;;;;4.57;0.77;;;11.10;99.90;;;;;;5076041;28;20571;-55
2023/04/01 00:53:24;;;;;;;3.23;0.70;;;11.10;99.90;;;;;;5075998;28;20521;-54
2023/04/01 00:55:57;;;;;;;2.20;0.60;;;11.10;99.90;;;;;;5076042;28;20448;-55
2023/04/01 00:58:26;;;;;;;1.90;0.80;;;11.10;99.90;;;;;;5075985;28;20429;-55
2023/04/01 01:00:53;;;;;;;1.73;0.60;;;11.20;99.90;;;;;;5075868;28;20451;-55
2023/04/01 01:03:20;;;;;;;1.33;0.57;;;11.10;99.90;;;;;;5075809;28;20472;-55
2023/04/01 01:06:17;;;;;;;0.67;0.47;;;11.10;99.90;;;;;;5075829;28;20452;-55
2023/04/01 01:09:03;;;;;;;2.53;0.70;;;11.10;99.90;;;;;;5075954;28;20443;-55
2023/04/01 01:11:37;;;;;;;3.83;0.70;;;11.10;99.90;;;;;;5075882;28;20469;-55
2023/04/01 01:14:14;;;;;;;1.30;0.60;;;11.10;99.90;;;;;;5075756;28;20472;-54
2023/04/01 01:16:45;;;;;;;0.70;0.70;;;11.00;99.90;;;;;;5075776;28;20421;-55
2023/04/01 01:19:32;;;;;;;1.40;0.63;;;11.00;99.90;;;;;;5075749;28;20432;-55
2023/04/01 01:22:19;;;;;;;2.00;0.80;;;11.00;99.90;;;;;;5075710;28;20425;-55
2023/04/01 01:25:01;;;;;;;0.83;0.50;;;11.00;99.90;;;;;;5075490;28;20465;-55
2023/04/01 01:27:30;;;;;;;1.80;0.73;;;11.00;99.90;;;;;;5075503;28;20445;-55
2023/04/01 01:30:18;;;;;;;2.53;0.60;;;10.90;99.90;;;;;;5075040;28;20966;-55
2023/04/01 01:33:21;;;;;;;4.47;0.97;;;10.90;99.90;;;;;;5075662;28;20433;-54
2023/04/01 01:35:53;;;;;;;1.03;0.50;;;11.00;99.90;;;;;;5075391;28;20416;-54
2023/04/01 01:38:23;;;;;;;1.60;0.70;;;11.00;99.90;;;;;;5075143;28;20452;-55
2023/04/01 01:40:53;;;;;;;3.33;0.80;;;10.90;99.90;;;;;;5074976;28;20470;-54
2023/04/01 01:43:23;;;;;;;2.40;0.93;;;11.00;99.90;;;;;;5074449;28;20469;-55
2023/04/01 01:45:53;;;;;;;0.90;0.40;;;10.90;99.90;;;;;;5074652;28;20444;-55
2023/04/01 01:48:20;;;;;;;3.07;0.80;;;11.00;99.90;;;;;;5075075;28;20451;-55
2023/04/01 01:50:50;;;;;;;2.43;0.87;;;11.00;99.90;;;;;;5074895;28;20828;-55
2023/04/01 01:53:17;;;;;;;1.90;0.73;;;11.00;99.90;;;;;;5074905;28;20473;-55
2023/04/01 01:55:45;;;;;;;2.37;0.70;;;11.00;99.90;;;;;;5074949;28;20518;-54
2023/04/01 01:58:17;;;;;;;2.60;1.17;;;11.00;99.90;;;;;;5075016;28;20444;-54
2023/04/01 02:00:50;;;;;;;1.90;0.93;;;11.00;99.90;;;;;;5074460;28;20895;-54
2023/04/01 02:03:20;;;;;;;2.50;0.80;;;11.10;99.90;;;;;;5074708;28;20467;-54
2023/04/01 02:05:47;;;;;;;2.60;0.90;;;11.00;99.90;;;;;;5075721;28;20444;-55
2023/04/01 02:08:17;;;;;;;2.30;0.60;;;11.00;99.90;;;;;;5074524;28;20458;-55
2023/04/01 02:10:50;;;;;;;1.10;0.60;;;11.00;99.90;;;;;;5074413;28;20469;-55
2023/04/01 02:13:23;;;;;;;3.60;0.60;;;11.00;99.90;;;;;;5074167;28;20472;-55
2023/04/01 02:15:55;;;;;;;2.23;0.80;;;11.00;99.90;;;;;;5074791;28;20433;-55
2023/04/01 02:18:23;;;;;;;2.43;0.50;;;11.00;99.90;;;;;;5074461;28;20444;-54
2023/04/01 02:20:51;;;;;;;1.53;0.67;;;11.00;99.90;;;;;;5074083;28;20441;-55
2023/04/01 02:23:19;;;;;;;3.17;0.80;;;11.00;99.90;;;;;;5074204;28;20464;-55
2023/04/01 02:25:47;;;;;;;1.27;0.50;;;10.80;99.90;;;;;;5074251;28;20477;-55
2023/04/01 02:28:19;;;;;;;2.13;0.57;;;10.80;99.90;;;;;;5074289;28;20449;-55
2023/04/01 02:30:46;;;;;;;0.60;0.50;;;10.80;99.90;;;;;;5074182;28;20555;-54
2023/04/01 02:33:13;;;;;;;0.80;0.50;;;10.70;99.90;;;;;;5074353;28;20469;-56
2023/04/01 02:35:40;;;;;;;1.40;0.40;;;10.70;99.90;;;;;;5074122;28;20447;-55
2023/04/01 02:38:07;;;;;;;0.97;0.50;;;10.60;99.90;;;;;;5073852;28;20457;-56
2023/04/01 02:40:48;;;;;;;1.90;0.40;;;10.60;99.90;;;;;;5074042;28;20433;-56
2023/04/01 02:43:16;;;;;;;0.50;0.50;;;10.60;99.90;;;;;;5073920;28;20464;-56
2023/04/01 02:45:42;;;;;;;2.93;0.50;;;10.60;99.90;;;;;;5073890;28;20488;-56
2023/04/01 02:48:09;;;;;;;1.77;0.60;;;10.60;99.90;;;;;;5073860;28;20444;-55
2023/04/01 02:50:36;;;;;;;3.97;0.47;;;10.50;99.90;;;;;;5073578;28;21001;-55
2023/04/01 02:53:03;;;;;;;1.73;0.60;;;10.50;99.90;;;;;;5073709;28;20491;-56
2023/04/01 02:55:30;;;;;;;0.73;0.63;;;10.50;99.90;;;;;;5073067;28;20449;-56
2023/04/01 02:57:58;;;;;;;3.60;0.50;;;10.50;99.90;;;;;;5073735;28;20552;-55
2023/04/01 03:00:25;;;;;;;0.77;0.47;;;10.50;99.90;;;;;;5073733;28;20445;-55
2023/04/01 03:02:53;;;;;;;1.50;0.50;;;10.40;99.90;;;;;;5073656;28;20476;-56
2023/04/01 03:05:20;;;;;;;2.20;0.50;;;10.40;99.90;;;;;;5073679;28;20798;-55
2023/04/01 03:07:46;;;;;;;0.60;0.37;;;10.40;99.90;;;;;;5073616;28;20821;-55
2023/04/01 03:10:13;;;;;;;2.20;0.50;;;10.40;99.90;;;;;;5073736;28;20451;-56
2023/04/01 03:12:40;;;;;;;1.23;0.50;;;10.40;99.90;;;;;;5073142;28;20874;-56
2023/04/01 03:15:11;;;;;;;0.53;0.50;;;10.40;99.90;;;;;;5073174;28;20942;-55
2023/04/01 03:17:38;;;;;;;1.00;0.50;;;10.50;99.90;;;;;;5073481;28;20424;-55
2023/04/01 03:20:05;;;;;;;0.90;0.43;;;10.40;99.90;;;;;;5073141;28;20506;-56
2023/04/01 03:22:32;;;;;;;4.43;1.40;;;10.40;99.90;;;;;;5072998;28;20937;-56
2023/04/01 03:24:59;;;;;;;1.50;0.50;;;10.50;99.90;;;;;;5073483;28;20883;-55
2023/04/01 03:27:25;;;;;;;0.50;0.40;;;10.50;99.90;;;;;;5073439;28;20448;-55
2023/04/01 03:29:52;;;;;;;1.90;0.40;;;10.50;99.90;;;;;;5073378;28;20440;-55
2023/04/01 03:32:20;;;;;;;1.10;0.40;;;10.60;99.90;;;;;;5073303;28;20479;-55
2023/04/01 03:34:47;;;;;;;1.60;0.40;;;10.60;99.90;;;;;;5073280;28;20468;-55
2023/04/01 03:37:14;;;;;;;2.30;0.50;;;10.60;99.90;;;;;;5073271;28;20502;-54
2023/04/01 03:39:40;;;;;;;2.73;0.50;;;10.60;99.90;;;;;;5073068;28;20456;-55
2023/04/01 03:42:07;;;;;;;0.53;0.40;;;10.50;99.90;;;;;;5073225;28;20441;-55
2023/04/01 03:44:34;;;;;;;1.27;0.63;;;10.50;99.90;;;;;;5073242;28;20468;-55
2023/04/01 03:47:01;;;;;;;0.87;0.47;;;10.50;99.90;;;;;;5073246;28;20799;-55
2023/04/01 03:49:29;;;;;;;0.77;0.47;;;10.50;99.90;;;;;;5073196;28;20794;-55
2023/04/01 03:51:56;;;;;;;0.50;0.47;;;10.50;99.90;;;;;;5073092;28;20853;-55
2023/04/01 03:54:23;;;;;;;0.87;0.40;;;10.50;99.90;;;;;;5072844;28;20982;-55
2023/04/01 03:56:49;;;;;;;1.00;0.60;;;10.50;99.90;;;;;;5073146;28;20942;-55
2023/04/01 03:59:16;;;;;;;1.00;0.70;;;10.50;99.90;;;;;;5073423;28;20476;-55
2023/04/01 04:01:43;;;;;;;0.70;0.50;;;10.60;99.90;;;;;;5073185;28;20440;-55
2023/04/01 04:04:12;;;;;;;0.57;0.40;;;10.60;99.90;;;;;;5072930;28;20476;-55
2023/04/01 04:06:40;;;;;;;0.80;0.50;;;10.60;99.90;;;;;;5072919;28;20470;-55
2023/04/01 04:09:07;;;;;;;1.07;0.97;;;10.60;99.90;;;;;;5076851;28;20495;-55
2023/04/01 04:11:34;;;;;;;3.33;0.90;;;10.60;99.90;;;;;;5076825;28;20510;-55
2023/04/01 04:14:01;;;;;;;0.60;0.60;;;10.60;99.90;;;;;;5076843;28;20528;-54
2023/04/01 04:16:28;;;;;;;1.90;0.70;;;10.60;99.90;;;;;;5076808;28;20459;-55
2023/04/01 04:18:55;;;;;;;2.30;0.93;;;10.60;99.90;;;;;;5076785;28;20490;-55
2023/04/01 04:21:21;;;;;;;2.80;0.60;;;10.60;99.90;;;;;;5076756;28;20440;-55
2023/04/01 04:23:50;;;;;;;0.60;0.60;;;10.60;99.90;;;;;;5076624;28;20468;-55
2023/04/01 04:26:17;;;;;;;1.13;0.50;;;10.50;99.90;;;;;;5076526;28;20466;-55
2023/04/01 04:28:43;;;;;;;1.53;0.60;;;10.50;99.90;;;;;;5076529;28;20440;-55
2023/04/01 04:31:10;;;;;;;1.17;0.70;;;10.50;99.90;;;;;;5076459;28;20486;-55
2023/04/01 04:33:37;;;;;;;1.37;0.50;;;10.50;99.90;;;;;;5076701;28;20468;-55
2023/04/01 04:36:05;;;;;;;0.60;0.60;;;10.50;99.90;;;;;;5076352;28;20484;-55
2023/04/01 04:38:32;;;;;;;2.37;1.10;;;10.50;99.90;;;;;;5076109;28;20969;-55
2023/04/01 04:41:00;;;;;;;0.67;0.60;;;10.50;99.90;;;;;;5076341;28;20444;-55
2023/04/01 04:43:26;;;;;;;2.00;0.83;;;10.50;99.90;;;;;;5075915;28;21059;-55
2023/04/01 04:45:53;;;;;;;0.97;0.83;;;10.50;99.90;;;;;;5076312;28;20449;-54
2023/04/01 04:48:20;;;;;;;1.00;0.80;;;10.40;99.90;;;;;;5076234;28;20441;-55
2023/04/01 04:50:47;;;;;;;1.70;0.77;;;10.40;99.90;;;;;;5075931;28;20938;-55
2023/04/01 04:53:15;;;;;;;0.70;0.70;;;10.40;99.90;;;;;;5075812;28;20985;-55
2023/04/01 04:55:44;;;;;;;6.90;3.63;;;10.40;99.90;;;;;;5076083;28;20449;-55
2023/04/01 04:58:12;;;;;;;1.53;1.10;;;10.40;99.90;;;;;;5076031;28;20476;-54
2023/04/01 05:00:39;;;;;;;0.93;0.80;;;10.40;99.90;;;;;;5075970;28;20452;-54
2023/04/01 05:03:05;;;;;;;1.00;1.00;;;10.40;99.90;;;;;;5075798;28;20465;-55
2023/04/01 05:05:32;;;;;;;1.83;1.00;;;10.40;99.90;;;;;;5075873;28;20464;-55
2023/04/01 05:07:59;;;;;;;2.63;1.30;;;10.40;99.90;;;;;;5075827;28;20522;-55
2023/04/01 05:10:25;;;;;;;1.00;0.90;;;10.40;99.90;;;;;;5075414;28;20826;-55
2023/04/01 05:12:52;;;;;;;2.27;1.60;;;10.40;99.90;;;;;;5075638;28;20536;-56
2023/04/01 05:15:20;;;;;;;1.03;0.90;;;10.40;99.90;;;;;;5076180;28;20448;-55
2023/04/01 05:17:47;;;;;;;1.20;1.10;;;10.40;99.90;;;;;;5075348;28;20448;-55
2023/04/01 05:20:15;;;;;;;1.10;1.00;;;10.40;99.90;;;;;;5075883;28;20448;-55
2023/04/01 05:22:41;;;;;;;1.63;1.10;;;10.40;99.90;;;;;;5075123;28;20821;-56
2023/04/01 05:25:08;;;;;;;1.10;1.00;;;10.40;99.90;;;;;;5075509;28;20453;-56
2023/04/01 05:27:35;;;;;;;1.43;1.30;;;10.40;99.90;;;;;;5075492;28;20441;-56
2023/04/01 05:30:02;;;;;;;2.30;1.67;;;10.40;99.90;;;;;;5075365;28;20448;-56
2023/04/01 05:32:31;;;;;;;1.40;1.20;;;10.40;99.90;;;;;;5075230;28;20476;-57
2023/04/01 05:34:58;;;;;;;2.40;1.60;;;10.40;99.90;;;;;;5075282;28;20452;-55
2023/04/01 05:37:25;;;;;;;1.30;1.20;;;10.40;99.90;;;;;;5075250;28;20816;-55
2023/04/01 05:39:52;;;;;;;1.83;1.30;;;10.40;99.90;;;;;;5074858;28;20498;-55
2023/04/01 05:42:18;;;;;;;1.20;1.20;;;10.40;99.90;;;;;;5074839;28;20821;-55
2023/04/01 05:44:45;;;;;;;3.10;1.60;;;10.50;99.90;;;;;;5074676;28;20982;-55
2023/04/01 05:47:12;;;;;;;1.93;1.30;;;10.50;99.90;;;;;;5075053;28;20456;-55
2023/04/01 05:49:40;;;;;;;1.40;1.30;;;10.50;99.90;;;;;;5074986;28;20448;-55
2023/04/01 05:52:06;;;;;;;1.30;1.20;;;10.50;99.90;;;;;;5074916;28;20480;-56
2023/04/01 05:54:34;;;;;;;1.43;1.33;;;10.50;99.90;;;;;;5074821;28;20461;-55
2023/04/01 05:57:00;;;;;;;2.50;1.40;;;10.50;99.90;;;;;;5074523;28;20973;-55
2023/04/01 05:59:27;;;;;;;1.87;1.70;;;10.40;99.90;;;;;;5074715;28;20453;-57
2023/04/01 06:01:54;;;;;;;1.87;1.50;;;10.50;99.90;;;;;;5074786;28;20450;-55
2023/04/01 06:04:21;;;;;;;3.17;1.60;;;10.40;99.90;;;;;;5074605;28;20476;-55
2023/04/01 06:06:49;;;;;;;1.50;1.40;;;10.40;99.90;;;;;;5074301;28;20826;-55
2023/04/01 06:09:17;;;;;;;2.50;1.70;;;10.40;99.90;;;;;;5074574;28;20449;-55
2023/04/01 06:11:59;;;;;;;1.30;1.30;;;10.50;99.90;;;;;;5074495;28;20480;-56
2023/04/01 06:14:38;;;;;;;1.80;1.70;;;10.50;99.90;;;;;;5074458;28;20474;-55
2023/04/01 06:17:22;;;;;;;5.43;1.80;;;10.50;99.90;;;;;;5074508;28;20425;-56
2023/04/01 06:19:56;;;;;;;1.80;1.70;;;10.50;99.90;;;;;;5074120;28;20801;-55
2023/04/01 06:23:00;;;;;;;1.43;1.33;;;10.50;99.90;;;;;;5074449;28;20425;-56
2023/04/01 06:25:59;;;;;;;2.27;1.60;;;10.50;99.90;;;;;;5074374;28;20437;-55
2023/04/01 06:28:53;;;;;;;1.40;1.30;;;10.50;99.90;;;;;;5040615;28;20955;-55
2023/04/01 06:31:34;;;;;;;2.90;1.57;;;10.60;99.90;;;;;;5073413;28;20436;-55
2023/04/01 06:34:19;;;;;;;1.83;1.47;;;10.60;99.90;;;;;;5073906;28;20479;-55
2023/04/01 06:37:04;;;;;;;2.43;1.73;;;10.60;99.90;;;;;;5074080;28;20433;-55
2023/04/01 06:39:53;;;;;;;3.87;1.50;;;10.50;99.90;;;;;;5073790;28;20478;-55
2023/04/01 06:42:50;;;;;;;3.07;1.90;;;10.50;99.90;;;;;;5074020;28;20429;-55
2023/04/01 06:45:29;;;;;;;2.77;2.17;;;10.50;99.90;;;;;;5073846;28;20434;-54
2023/04/01 06:48:11;;;;;;;2.23;1.90;;;10.40;99.90;;;;;;5073636;28;20902;-54
2023/04/01 06:50:57;;;;;;;1.53;1.43;;;10.50;99.90;;;;;;5073996;28;20479;-55
2023/04/01 06:53:30;;;;;;;2.67;2.47;;;10.40;99.90;;;;;;5073484;28;21012;-55
2023/04/01 06:56:02;;;;;;;2.27;1.77;;;10.40;99.90;;;;;;5073939;28;20433;-55
2023/04/01 06:58:35;;;;;;;1.60;1.40;;;10.40;99.90;;;;;;5073945;28;20437;-55
2023/04/01 07:01:04;;;;;;;1.90;1.60;;;10.40;99.90;;;;;;5073792;28;20429;-54
2023/04/01 07:03:34;;;;;;;2.27;2.10;;;10.40;99.90;;;;;;5074145;28;20461;-54
2023/04/01 07:06:05;;;;;;;2.37;1.80;;;10.40;99.90;;;;;;5073854;28;20520;-54
2023/04/01 07:08:35;;;;;;;2.00;1.73;;;10.40;99.90;;;;;;5073784;28;20465;-54
2023/04/01 07:11:05;;;;;;;2.30;1.70;;;10.40;99.90;;;;;;5074215;28;20479;-55
2023/04/01 07:13:37;;;;;;;2.27;2.00;;;10.50;99.90;;;;;;5073173;28;21013;-55
2023/04/01 07:16:13;;;;;;;3.13;2.67;;;10.50;99.90;;;;;;5073585;28;20783;-55
2023/04/01 07:18:45;;;;;;;2.97;2.77;;;10.50;99.90;;;;;;5073501;28;20428;-54
2023/04/01 07:21:22;;;;;;;4.93;3.10;;;10.50;99.90;;;;;;5073540;28;20433;-54
2023/04/01 07:23:51;;;;;;;3.00;2.70;;;10.50;99.90;;;;;;5073710;28;20468;-54
2023/04/01 07:26:21;;;;;;;3.07;2.77;;;10.50;99.90;;;;;;5073369;28;20444;-54
2023/04/01 07:28:49;;;;;;;4.03;2.73;;;10.50;99.90;;;;;;5073426;28;20471;-54
2023/04/01 07:31:23;;;;;;;2.83;2.40;;;10.60;99.90;;;;;;5073522;28;20453;-54
2023/04/01 07:33:59;;;;;;;4.00;3.03;;;10.50;99.90;;;;;;5072951;28;20484;-55
2023/04/01 07:36:34;;;;;;;6.00;2.97;;;10.50;99.90;;;;;;5073584;28;20459;-55
2023/04/01 07:39:09;;;;;;;3.27;2.97;;;10.60;99.90;;;;;;5073309;28;20458;-54
2023/04/01 07:41:50;;;;;;;3.43;3.13;;;10.50;99.90;;;;;;5074930;28;20439;-54
2023/04/01 07:44:25;;;;;;;3.20;3.00;;;10.50;99.90;;;;;;5077444;28;20547;-55
2023/04/01 07:47:04;;;;;;;3.57;3.27;;;10.50;99.90;;;;;;5077638;28;20441;-55
2023/04/01 07:49:41;;;;;;;4.17;3.80;;;10.50;99.90;;;;;;5077409;28;20432;-55
2023/04/01 07:52:15;;;;;;;3.83;3.30;;;10.60;99.90;;;;;;5077011;28;20472;-55
2023/04/01 07:54:48;;;;;;;3.43;3.13;;;10.60;99.90;;;;;;5077176;28;20474;-55
2023/04/01 07:57:21;;;;;;;2.97;2.77;;;10.70;99.90;;;;;;5077275;28;20441;-55
2023/04/01 07:59:58;;;;;;;6.03;3.20;;;10.70;99.90;;;;;;5076955;28;20790;-55
2023/04/01 08:02:37;;;;;;;2.80;2.60;;;10.70;99.90;;;;;;5077145;28;20435;-55
2023/04/01 08:05:15;;;;;;;3.43;3.13;;;10.70;99.90;;;;;;5077283;28;20433;-55
2023/04/01 08:07:46;;;;;;;3.07;2.80;;;10.70;99.90;;;;;;5076739;28;20432;-55
2023/04/01 08:10:19;;;;;;;2.83;2.40;;;10.70;99.90;;;;;;5076947;28;20483;-55
2023/04/01 08:12:59;;;;;;;2.80;2.60;;;10.70;99.90;;;;;;5076766;28;20469;-55
2023/04/01 08:15:29;;;;;;;3.00;2.57;;;10.70;99.90;;;;;;5076535;28;20911;-55
2023/04/01 08:18:05;;;;;;;2.63;2.43;;;10.70;99.90;;;;;;5076768;28;20455;-56
2023/04/01 08:20:38;;;;;;;2.20;2.10;;;10.80;99.90;;;;;;5076749;28;20926;-55
2023/04/01 08:23:11;;;;;;;2.83;2.63;;;10.80;99.90;;;;;;5076521;28;20460;-55
2023/04/01 08:25:41;;;;;;;2.30;2.20;;;10.80;99.90;;;;;;5076566;28;20903;-55
2023/04/01 08:28:18;;;;;;;2.20;2.10;;;10.90;99.90;;;;;;5076625;28;20506;-55
2023/04/01 08:30:49;;;;;;;2.10;1.97;;;11.00;99.90;;;;;;5072848;28;20460;-55
2023/04/01 08:33:22;;;;;;;2.60;2.47;;;11.00;99.90;;;;;;5055988;28;20963;-56
2023/04/01 08:35:53;;;;;;;1.93;1.83;;;11.00;99.90;;;;;;5056146;28;20437;-55
2023/04/01 08:38:24;;;;;;;2.70;2.50;;;11.00;99.90;;;;;;5056178;28;20472;-56
2023/04/01 08:41:00;;;;;;;3.50;1.77;;;11.00;99.90;;;;;;5056428;28;20453;-56
2023/04/01 08:43:56;;;;;;;2.47;2.23;;;10.90;99.90;;;;;;5056286;28;20831;-56
2023/04/01 08:46:53;;;;;;;1.90;1.80;;;10.90;99.90;;;;;;5056312;28;20441;-55
2023/04/01 08:50:01;;;;;;;2.00;1.90;;;11.00;99.90;;;;;;5055223;28;20471;-56
2023/04/01 08:52:37;;;;;;;2.40;2.20;;;11.00;99.90;;;;;;4994270;28;20487;-56
2023/04/01 08:55:31;;;;;;;1.97;1.87;;;10.90;99.90;;;;;;5047212;28;20456;-56
2023/04/01 08:58:25;;;;;;;2.20;2.10;;;11.00;99.90;;;;;;5056018;28;20425;-55
2023/04/01 09:00:56;;;;;;;2.07;1.97;;;11.00;99.90;;;;;;5055942;28;20452;-55
2023/04/01 09:03:44;;;;;;;1.87;1.77;;;11.00;99.90;;;;;;5055866;28;20469;-56
2023/04/01 09:06:40;;;;;;;2.40;1.97;;;11.00;99.90;;;;;;5055603;28;20947;-55
2023/04/01 09:09:26;;;;;;;2.60;2.40;;;10.80;99.90;;;;;;5055772;28;20456;-55
2023/04/01 09:12:46;;;;;;;2.60;2.40;;;10.80;99.90;;;;;;5055815;28;20429;-55
2023/04/01 09:15:34;;;;;;;3.67;3.37;;;10.80;99.90;;;;;;4979738;28;20507;-55
2023/04/01 09:18:23;;;;;;;3.10;2.90;;;10.80;99.90;;;;;;5042951;28;20868;-55
2023/04/01 09:21:06;;;;;;;4.33;3.93;;;10.80;99.90;;;;;;5055601;28;20433;-56
2023/04/01 09:23:55;;;;;;;4.97;3.80;;;10.90;99.90;;;;;;5055508;28;20466;-56
2023/04/01 09:26:55;;;;;;;4.20;3.90;;;10.90;99.90;;;;;;5055510;28;20441;-55
2023/04/01 09:29:38;;;;;;;4.20;3.90;;;10.90;99.90;;;;;;5055830;28;20495;-56
2023/04/01 09:32:26;;;;;;;4.07;3.77;;;10.90;99.90;;;;;;5055877;28;20434;-57
2023/04/01 09:35:05;;;;;;;4.60;4.20;;;10.90;99.90;;;;;;5054977;28;20466;-55
2023/04/01 09:37:53;;;;;;;4.00;3.70;;;10.80;99.90;;;;;;5055307;28;20434;-55
2023/04/01 09:40:26;;;;;;;4.07;3.77;;;10.70;99.90;;;;;;5063320;28;20464;-55
2023/04/01 09:43:21;;;;;;;3.67;3.40;;;10.80;99.90;;;;;;5075295;28;20461;-55
2023/04/01 09:46:04;;;;;;;3.87;3.60;;;10.80;99.90;;;;;;5072347;28;20456;-55
2023/04/01 09:49:01;;;;;;;3.93;3.70;;;10.80;99.90;;;;;;5075200;28;20439;-55
2023/04/01 09:51:38;;;;;;;5.03;3.70;;;10.70;99.90;;;;;;5061961;28;20456;-54
2023/04/01 09:54:25;;;;;;;4.40;4.10;;;10.80;99.90;;;;;;5074960;28;20484;-55
2023/04/01 09:57:15;;;;;;;3.40;3.10;;;10.80;99.90;;;;;;5075046;28;20433;-55
2023/04/01 10:00:25;;;;;;;5.80;3.40;;;10.80;99.90;;;;;;5075130;28;20771;-55
2023/04/01 10:03:38;;;;;;;2.70;2.60;;;10.90;99.90;;;;;;5075756;28;20514;-55
2023/04/01 10:06:43;;;;;;;3.20;2.90;;;11.00;99.90;;;;;;5073894;28;20429;-55
2023/04/01 10:09:54;;;;;;;3.33;3.03;;;11.00;99.90;;;;;;5074903;28;20443;-56
2023/04/01 10:12:54;;;;;;;4.13;3.00;;;11.20;99.90;;;;;;5074311;28;20890;-56
2023/04/01 10:15:46;;;;;;;4.00;2.80;;;11.20;99.90;;;;;;5074417;28;20440;-55
2023/04/01 10:18:32;;;;;;;2.30;2.20;;;11.10;99.90;;;;;;5074484;28;20525;-55
2023/04/01 10:21:20;;;;;;;2.83;2.63;;;11.10;99.90;;;;;;5074820;28;20433;-55
2023/04/01 10:24:26;;;;;;;3.87;2.83;;;11.00;99.90;;;;;;5074422;28;20498;-55
2023/04/01 10:27:10;;;;;;;3.30;3.10;;;11.00;99.90;;;;;;5074497;28;20439;-55
2023/04/01 10:30:13;;;;;;;3.30;3.10;;;11.10;99.90;;;;;;5074580;28;20433;-55
2023/04/01 10:33:04;;;;;;;3.40;3.20;;;11.10;99.90;;;;;;5074317;28;20433;-55
2023/04/01 10:36:07;;;;;;;3.50;3.20;;;11.20;99.90;;;;;;5041192;28;20452;-56
2023/04/01 10:39:09;;;;;;;4.70;3.90;;;11.20;99.90;;;;;;5074209;28;20448;-56
2023/04/01 10:42:08;;;;;;;4.43;4.13;;;11.20;99.90;;;;;;5073709;28;20527;-56
2023/04/01 10:44:57;;;;;;;4.63;4.23;;;11.20;99.90;;;;;;5074035;28;20471;-56
2023/04/01 10:47:57;;;;;;;4.20;3.90;;;11.40;99.90;;;;;;5074157;28;20432;-56
2023/04/01 10:50:56;;;;;;;4.40;4.00;;;11.50;99.90;;;;;;5054014;28;20441;-56
2023/04/01 10:53:40;;;;;;;4.50;4.20;;;11.50;99.90;;;;;;5057986;28;20503;-55
2023/04/01 10:56:33;;;;;;;4.33;3.90;;;11.60;99.90;;;;;;5073503;28;20914;-55
2023/04/01 11:00:00;;;;;;;4.30;4.00;;;11.70;99.90;;;;;;5073859;28;20432;-55
2023/04/01 11:03:11;;;;;;;5.10;4.70;;;11.70;99.90;;;;;;5073707;28;20852;-55
2023/04/01 11:06:09;;;;;;;5.77;5.30;;;11.60;99.90;;;;;;5073208;28;20924;-55
2023/04/01 11:09:07;;;;;;;5.70;5.20;;;11.70;99.90;;;;;;5073659;28;20429;-55
2023/04/01 11:12:15;;;;;;;4.50;4.20;;;11.70;99.90;;;;;;5061218;28;20460;-55
2023/04/01 11:15:18;;;;;;;4.90;4.50;;;11.70;99.90;;;;;;5011523;28;21047;-54
2023/04/01 11:18:22;;;;;;;5.70;5.20;;;11.70;99.90;;;;;;5011257;28;20439;-56
2023/04/01 11:21:28;;;;;;;5.30;4.83;;;11.70;99.90;;;;;;5074246;28;20533;-56
2023/04/01 11:24:14;;;;;;;5.43;4.93;;;11.80;99.90;;;;;;5073435;28;20490;-56
2023/04/01 11:26:53;;;;;;;5.57;5.07;;;11.80;99.90;;;;;;5073489;28;20431;-56
2023/04/01 11:29:50;;;;;;;4.77;4.43;;;12.00;99.90;;;;;;5073420;28;20424;-56
2023/04/01 11:32:32;;;;;;;5.13;4.73;;;12.00;99.90;;;;;;5073363;28;20433;-56
2023/04/01 11:35:33;;;;;;;5.20;4.80;;;12.00;99.90;;;;;;5072977;28;20985;-56
2023/04/01 11:38:11;;;;;;;4.90;4.50;;;12.10;99.90;;;;;;5073193;28;20791;-55
2023/04/01 11:40:46;;;;;;;4.77;4.40;;;12.20;99.90;;;;;;5073305;28;20446;-56
2023/04/01 11:43:19;;;;;;;5.00;4.60;;;12.40;99.90;;;;;;5072887;28;20878;-56
2023/04/01 11:45:52;;;;;;;4.63;4.30;;;12.40;99.90;;;;;;5073263;28;20430;-55
2023/04/01 11:48:48;;;;;;;4.50;4.13;;;12.40;99.90;;;;;;5073251;28;20472;-56
2023/04/01 11:51:39;;;;;;;5.10;4.70;;;12.40;99.90;;;;;;5063052;28;20935;-55
2023/04/01 11:54:20;;;;;;;4.07;3.77;;;12.40;99.90;;;;;;5073328;28;20476;-55
2023/04/01 11:57:00;;;;;;;3.83;3.53;;;12.40;99.90;;;;;;5073159;28;20797;-55
2023/04/01 11:59:53;;;;;;;4.50;4.10;;;12.50;99.90;;;;;;5073093;28;20424;-55
2023/04/01 12:02:28;;;;;;;4.50;4.10;;;12.40;99.90;;;;;;5073107;28;20440;-56
2023/04/01 12:05:03;;;;;;;3.50;3.30;;;12.50;99.90;;;;;;5073262;28;20425;-56
2023/04/01 12:07:54;;;;;;;4.20;3.90;;;12.50;99.90;;;;;;5073045;28;20433;-55
2023/04/01 12:10:27;;;;;;;7.13;3.70;;;12.50;99.90;;;;;;5073115;28;20456;-55
2023/04/01 12:13:03;;;;;;;3.50;3.27;;;12.50;99.90;;;;;;5073085;28;20469;-55
2023/04/01 12:15:45;;;;;;;4.27;3.97;;;12.40;99.90;;;;;;5072657;28;20917;-56
2023/04/01 12:18:23;;;;;;;4.33;4.03;;;12.30;99.90;;;;;;5072944;28;20875;-55
2023/04/01 12:20:55;;;;;;;4.20;3.83;;;12.30;99.90;;;;;;5073002;28;20425;-56
2023/04/01 12:23:47;;;;;;;4.77;4.37;;;12.30;99.90;;;;;;5072869;28;20464;-55
2023/04/01 12:26:28;;;;;;;3.67;3.47;;;12.10;99.90;;;;;;5072848;28;20429;-55
2023/04/01 12:29:14;;;;;;;4.63;4.33;;;12.10;99.90;;;;;;5074569;28;20440;-55
2023/04/01 12:31:53;;;;;;;4.17;3.87;;;12.10;99.90;;;;;;5076277;28;20846;-56
2023/04/01 12:34:45;;;;;;;5.17;4.77;;;12.10;99.90;;;;;;5076394;28;20480;-56
2023/04/01 12:37:19;;;;;;;4.20;3.90;;;12.00;99.90;;;;;;5076535;28;20433;-56
2023/04/01 12:40:03;;;;;;;4.47;4.17;;;12.00;99.90;;;;;;5075936;28;20882;-56
2023/04/01 12:42:46;;;;;;;4.60;4.30;;;11.90;99.90;;;;;;5076443;28;20463;-56
2023/04/01 12:45:30;;;;;;;4.40;4.10;;;11.90;99.90;;;;;;5076462;28;20429;-56
2023/04/01 12:48:20;;;;;;;4.50;4.20;;;11.90;99.90;;;;;;5076279;28;20476;-55
2023/04/01 12:51:12;;;;;;;5.00;4.60;;;11.90;99.90;;;;;;5076040;28;20435;-56
2023/04/01 12:53:52;;;;;;;4.80;4.40;;;11.90;99.90;;;;;;5075662;28;20832;-55
2023/04/01 12:56:30;;;;;;;5.20;4.70;;;11.90;99.90;;;;;;5076103;28;20440;-55
2023/04/01 12:59:15;;;;;;;5.23;4.83;;;11.90;99.90;;;;;;5076138;28;20436;-55
2023/04/01 13:02:05;;;;;;;5.83;5.23;;;11.80;99.90;;;;;;5076093;28;20479;-56
2023/04/01 13:04:56;;;;;;;4.50;4.20;;;11.70;99.90;;;;;;5075766;28;20519;-55
2023/04/01 13:07:46;;;;;;;4.90;4.50;;;11.70;99.90;;;;;;5075997;28;20437;-55
2023/04/01 13:10:27;;;;;;;4.87;4.37;;;11.70;99.90;;;;;;5076231;28;20429;-55
2023/04/01 13:13:19;;;;;;;5.17;4.87;;;11.70;99.90;;;;;;5075645;28;20476;-56
2023/04/01 13:15:52;;;;;;;4.97;4.60;;;11.80;99.90;;;;;;5075390;28;20870;-55
2023/04/01 13:18:29;;;;;;;4.57;4.27;;;11.70;99.90;;;;;;5075752;28;20493;-56
2023/04/01 13:21:06;;;;;;;4.97;4.50;;;11.70;99.90;;;;;;5075660;28;20788;-55
2023/04/01 13:23:52;;;;;;;5.30;4.90;;;11.80;99.90;;;;;;5075734;28;20464;-56
2023/04/01 13:26:28;;;;;;;6.63;4.53;;;11.80;99.90;;;;;;5075766;28;20444;-55
2023/04/01 13:29:05;;;;;;;4.80;4.37;;;11.80;99.90;;;;;;5075758;28;20431;-56
2023/04/01 13:31:46;;;;;;;4.80;4.40;;;11.90;99.90;;;;;;5075555;28;20424;-56
2023/04/01 13:34:31;;;;;;;4.43;4.13;;;12.00;99.90;;;;;;5075064;28;21040;-56
2023/04/01 13:37:10;;;;;;;4.87;4.53;;;12.10;99.90;;;;;;5075689;28;20425;-55
2023/04/01 13:40:03;;;;;;;4.17;3.87;;;12.10;99.90;;;;;;5075111;28;20468;-55